Time;durP1;ratioP1;P1;durP2;ratioP2;P2;SDS_P1;SDS_P2;PMS_P1;PMS_P2;Temp;Humidity;BMP_temperature;BMP_pressure;BME280_temperature;BME280_humidity;BME280_pressure;Samples;Min_cycle;Max_cycle;Signal;HPM_P1;HPM_P2
2023/03/11 00:02:10;;;;;;;1.50;1.50;;;2.10;99.90;;;;;;4997351;28;20233;-74
2023/03/11 00:04:38;;;;;;;1.40;1.40;;;2.10;99.90;;;;;;4996899;28;20207;-77
2023/03/11 06:12:44;;;;;;;3.60;1.52;;;-0.70;99.90;;;;;;5772360;23;20230;-78
2023/03/11 06:15:11;;;;;;;2.03;1.95;;;-0.70;99.90;;;;;;5000518;28;20298;-77
2023/03/11 06:17:37;;;;;;;1.88;1.77;;;-0.60;99.90;;;;;;4999643;28;20205;-77
2023/03/11 06:20:05;;;;;;;2.13;2.05;;;-0.60;99.90;;;;;;5000032;28;20203;-78
2023/03/11 06:22:32;;;;;;;2.20;2.10;;;-0.50;99.90;;;;;;4999134;28;20233;-76
2023/03/11 06:24:59;;;;;;;1.50;1.50;;;-0.50;99.90;;;;;;4998362;28;20211;-77
2023/03/11 06:27:26;;;;;;;1.60;1.50;;;-0.40;99.90;;;;;;4997176;28;20211;-77
2023/03/11 06:29:54;;;;;;;1.50;1.40;;;-0.30;99.90;;;;;;4996806;28;20202;-76
2023/03/11 06:32:21;;;;;;;1.20;1.10;;;-0.30;99.90;;;;;;4996773;28;20227;-76
2023/03/11 06:34:50;;;;;;;1.15;1.15;;;-0.20;99.90;;;;;;4994471;28;20202;-76
2023/03/11 06:37:17;;;;;;;1.08;1.08;;;-0.20;99.90;;;;;;4993989;28;20203;-75
2023/03/11 06:39:44;;;;;;;1.17;1.10;;;-0.10;99.90;;;;;;4997148;28;20226;-75
2023/03/11 06:42:11;;;;;;;1.00;1.00;;;0.00;99.90;;;;;;4997225;28;20759;-75
2023/03/11 06:44:38;;;;;;;1.02;0.80;;;0.00;99.90;;;;;;4997661;28;20206;-76
2023/03/11 06:47:06;;;;;;;0.90;0.90;;;0.10;99.90;;;;;;4997534;28;20202;-76
2023/03/11 06:49:33;;;;;;;0.77;0.77;;;0.30;99.90;;;;;;4997457;28;20584;-76
2023/03/11 06:52:00;;;;;;;0.80;0.80;;;0.40;99.90;;;;;;4997580;28;20218;-77
2023/03/11 06:54:26;;;;;;;1.00;1.00;;;0.60;99.90;;;;;;4997670;28;20224;-77
2023/03/11 06:56:53;;;;;;;0.93;0.88;;;0.80;99.90;;;;;;4997546;28;20210;-78
2023/03/11 06:59:21;;;;;;;1.10;1.10;;;1.30;99.90;;;;;;4997363;28;20331;-77
2023/03/11 07:01:48;;;;;;;1.92;0.85;;;1.90;99.90;;;;;;4997297;28;20234;-77
2023/03/11 07:04:16;;;;;;;2.13;0.90;;;2.30;99.90;;;;;;5000756;28;20261;-79
2023/03/11 07:06:43;;;;;;;1.55;1.20;;;2.70;99.90;;;;;;4998141;28;20199;-80
2023/03/11 07:09:10;;;;;;;2.50;0.95;;;3.20;99.90;;;;;;5001364;28;20199;-80
2023/03/11 07:11:36;;;;;;;1.02;1.00;;;3.00;99.90;;;;;;5001497;28;20202;-81
2023/03/11 07:14:03;;;;;;;2.70;0.90;;;2.90;99.90;;;;;;5003316;28;20203;-80
2023/03/11 07:16:31;;;;;;;1.20;1.00;;;2.80;99.90;;;;;;5002782;28;20211;-80
2023/03/11 07:19:00;;;;;;;0.93;0.93;;;2.60;99.90;;;;;;5000928;28;20210;-80
2023/03/11 07:21:30;;;;;;;2.65;1.40;;;2.40;99.90;;;;;;5002118;28;20254;-80
2023/03/11 07:23:58;;;;;;;1.05;1.05;;;2.20;99.90;;;;;;5000486;28;20258;-81
2023/03/11 07:26:26;;;;;;;1.40;1.02;;;2.20;99.90;;;;;;5000978;28;20211;-81
2023/03/11 07:28:54;;;;;;;1.30;1.20;;;2.10;99.90;;;;;;5004462;28;20677;-80
2023/03/11 07:31:23;;;;;;;1.27;0.68;;;2.00;99.90;;;;;;5003894;28;20199;-80
2023/03/11 07:33:50;;;;;;;2.60;1.25;;;1.90;99.90;;;;;;5003191;28;20227;-80
2023/03/11 07:36:19;;;;;;;1.33;1.33;;;1.70;99.90;;;;;;5001585;28;20609;-80
2023/03/11 07:38:48;;;;;;;2.25;1.30;;;1.80;99.90;;;;;;5000424;28;20214;-79
2023/03/11 07:41:15;;;;;;;1.95;1.10;;;2.00;99.90;;;;;;4998504;28;20666;-78
2023/03/11 07:43:44;;;;;;;0.90;0.90;;;2.40;99.90;;;;;;4997776;28;20227;-78
2023/03/11 07:46:12;;;;;;;2.05;0.90;;;2.70;99.90;;;;;;4997873;28;20573;-78
2023/03/11 07:48:40;;;;;;;1.55;0.90;;;3.00;99.90;;;;;;4997570;28;20237;-77
2023/03/11 07:51:10;;;;;;;1.35;0.90;;;3.20;99.90;;;;;;4996649;28;20217;-77
2023/03/11 07:53:39;;;;;;;1.58;1.45;;;3.30;99.90;;;;;;4996260;28;20217;-77
2023/03/11 07:56:09;;;;;;;0.95;0.90;;;3.30;97.20;;;;;;4997343;28;20230;-77
2023/03/11 07:58:37;;;;;;;1.02;0.90;;;3.10;95.00;;;;;;5000926;28;20191;-76
2023/03/11 08:01:06;;;;;;;1.20;0.90;;;2.90;96.30;;;;;;5000588;28;20213;-77
2023/03/11 08:03:33;;;;;;;1.08;1.08;;;2.60;94.00;;;;;;5000782;28;20305;-76
2023/03/11 08:06:01;;;;;;;1.15;1.15;;;2.30;97.30;;;;;;5001387;28;20653;-75
2023/03/11 08:08:28;;;;;;;1.65;0.88;;;2.20;99.90;;;;;;5001520;28;20285;-75
2023/03/11 08:10:55;;;;;;;2.00;1.10;;;2.40;99.90;;;;;;5000831;28;20213;-75
2023/03/11 08:13:24;;;;;;;1.35;1.00;;;2.50;97.60;;;;;;4999909;28;20218;-75
2023/03/11 08:15:51;;;;;;;1.45;1.10;;;2.60;96.70;;;;;;4999405;28;20217;-75
2023/03/11 08:18:18;;;;;;;0.80;0.80;;;2.60;93.80;;;;;;4999971;28;20627;-76
2023/03/11 08:20:45;;;;;;;3.85;1.02;;;2.80;96.10;;;;;;5000419;28;20234;-76
2023/03/11 08:23:12;;;;;;;0.75;0.75;;;2.80;90.10;;;;;;5000664;28;20601;-76
2023/03/11 08:25:39;;;;;;;1.85;1.00;;;2.80;93.30;;;;;;4995758;28;20578;-76
2023/03/11 08:28:06;;;;;;;1.63;1.10;;;3.00;83.20;;;;;;4995920;28;20211;-76
2023/03/11 08:30:35;;;;;;;3.15;1.00;;;3.00;84.10;;;;;;4995847;28;20209;-76
2023/03/11 08:33:01;;;;;;;1.15;1.15;;;3.00;85.20;;;;;;4995248;28;20726;-76
2023/03/11 08:35:28;;;;;;;0.82;0.82;;;3.10;88.20;;;;;;4995663;28;20306;-77
2023/03/11 08:37:55;;;;;;;0.90;0.90;;;3.30;82.70;;;;;;4995522;28;20337;-77
2023/03/11 08:40:21;;;;;;;1.60;1.10;;;3.40;80.10;;;;;;4995510;28;20206;-77
2023/03/11 08:42:48;;;;;;;1.13;1.13;;;3.50;76.80;;;;;;4994970;28;20729;-77
2023/03/11 08:45:15;;;;;;;3.08;0.90;;;3.70;80.30;;;;;;4995429;28;20287;-76
2023/03/11 08:47:43;;;;;;;3.63;1.13;;;3.80;71.00;;;;;;4995773;28;20206;-72
2023/03/11 08:50:13;;;;;;;1.00;1.00;;;3.80;73.50;;;;;;4995011;28;20615;-72
2023/03/11 08:52:40;;;;;;;1.52;0.95;;;3.80;75.10;;;;;;4994964;28;20258;-72
2023/03/11 08:55:13;;;;;;;1.17;0.73;;;3.70;70.00;;;;;;4995029;28;20614;-73
2023/03/11 08:57:41;;;;;;;1.02;1.02;;;3.80;71.20;;;;;;4994984;28;20194;-73
2023/03/11 09:00:10;;;;;;;1.65;1.20;;;4.10;75.10;;;;;;4994983;28;20205;-77
2023/03/11 09:02:36;;;;;;;1.52;1.42;;;4.10;61.70;;;;;;4998368;28;20226;-81
2023/03/11 09:05:05;;;;;;;1.00;0.90;;;4.10;59.10;;;;;;4999750;28;20237;-77
2023/03/11 09:07:32;;;;;;;0.88;0.88;;;4.10;60.00;;;;;;4997248;28;20544;-77
2023/03/11 09:09:59;;;;;;;2.10;0.98;;;4.20;64.20;;;;;;4996891;28;20206;-77
2023/03/11 09:12:25;;;;;;;0.57;0.57;;;4.40;59.60;;;;;;4996251;28;20223;-76
2023/03/11 09:14:53;;;;;;;2.38;0.95;;;4.40;54.40;;;;;;4994622;28;20682;-76
2023/03/11 09:17:20;;;;;;;0.77;0.75;;;4.30;51.00;;;;;;4995879;28;20206;-76
2023/03/11 09:19:47;;;;;;;1.10;0.93;;;4.10;49.10;;;;;;4995200;28;20210;-77
2023/03/11 09:22:15;;;;;;;0.65;0.65;;;4.00;48.10;;;;;;4995097;28;20230;-77
2023/03/11 09:24:42;;;;;;;0.85;0.85;;;3.90;49.00;;;;;;4995600;28;20203;-77
2023/03/11 09:27:09;;;;;;;1.40;1.00;;;3.80;49.60;;;;;;4994902;28;20682;-74
2023/03/11 09:29:36;;;;;;;1.00;0.80;;;3.80;49.40;;;;;;4995503;28;20575;-77
2023/03/11 09:32:03;;;;;;;1.58;1.10;;;3.60;48.70;;;;;;4995098;28;20579;-77
2023/03/11 09:34:30;;;;;;;1.25;0.95;;;3.50;47.90;;;;;;4995987;28;20187;-77
2023/03/11 09:36:56;;;;;;;0.75;0.73;;;3.30;49.60;;;;;;4996093;28;20220;-78
2023/03/11 09:39:24;;;;;;;0.82;0.82;;;3.20;52.00;;;;;;4996812;28;20198;-78
2023/03/11 09:41:54;;;;;;;1.08;1.00;;;3.30;53.70;;;;;;4995880;28;20194;-78
2023/03/11 09:44:26;;;;;;;2.30;1.00;;;3.40;56.80;;;;;;4997438;28;20202;-78
2023/03/11 09:47:28;;;;;;;0.82;0.82;;;3.50;52.50;;;;;;5000553;28;20190;-79
2023/03/11 09:50:18;;;;;;;0.98;0.80;;;3.40;50.90;;;;;;5001563;28;20689;-79
2023/03/11 09:52:52;;;;;;;1.23;1.10;;;3.20;49.60;;;;;;4995664;28;20287;-78
2023/03/11 09:55:32;;;;;;;0.98;0.98;;;3.00;50.40;;;;;;5001482;28;20205;-80
2023/03/11 09:58:04;;;;;;;0.63;0.63;;;2.90;50.20;;;;;;4999979;28;20210;-80
2023/03/11 10:00:31;;;;;;;2.38;0.90;;;2.80;49.50;;;;;;5001657;28;20202;-79
2023/03/11 10:02:59;;;;;;;0.80;0.80;;;2.80;50.00;;;;;;5001684;28;20238;-80
2023/03/11 10:05:28;;;;;;;1.00;1.00;;;3.00;53.40;;;;;;4999385;28;20206;-79
2023/03/11 10:08:02;;;;;;;1.17;0.93;;;3.20;53.40;;;;;;5004016;28;20579;-80
2023/03/11 10:10:35;;;;;;;2.50;1.00;;;3.20;50.60;;;;;;5012420;28;20199;-80
2023/03/11 10:13:14;;;;;;;1.33;1.23;;;3.20;50.00;;;;;;5012119;28;20218;-79
2023/03/11 10:15:47;;;;;;;1.25;0.90;;;3.10;48.60;;;;;;5009115;28;20217;-79
2023/03/11 10:18:34;;;;;;;1.20;1.10;;;3.00;48.90;;;;;;5006136;28;20210;-80
2023/03/11 10:21:07;;;;;;;0.98;0.98;;;2.90;49.60;;;;;;5000622;28;20206;-79
2023/03/11 10:23:47;;;;;;;1.10;1.10;;;2.90;49.90;;;;;;5005649;28;20233;-80
2023/03/11 10:26:20;;;;;;;1.10;0.95;;;2.80;49.90;;;;;;5001968;28;20183;-80
2023/03/11 10:28:51;;;;;;;1.17;0.95;;;2.80;50.30;;;;;;5004377;28;20187;-78
2023/03/11 10:31:22;;;;;;;1.63;1.02;;;2.80;51.20;;;;;;5001559;28;20194;-79
2023/03/11 10:33:52;;;;;;;2.63;1.45;;;2.90;50.30;;;;;;5004083;28;20215;-81
2023/03/11 10:36:23;;;;;;;2.38;1.38;;;2.80;50.00;;;;;;5006887;28;20187;-81
2023/03/11 10:38:52;;;;;;;4.72;1.30;;;2.80;50.00;;;;;;5005321;28;20198;-80
2023/03/11 10:41:26;;;;;;;1.35;1.20;;;2.90;51.90;;;;;;5006791;28;20233;-80
2023/03/11 10:44:00;;;;;;;1.23;1.10;;;2.90;50.10;;;;;;5002634;28;20276;-79
2023/03/11 10:46:28;;;;;;;1.60;0.90;;;2.90;50.90;;;;;;5003636;28;20210;-80
2023/03/11 10:48:56;;;;;;;1.38;1.17;;;2.90;48.80;;;;;;4999178;28;20227;-78
2023/03/11 10:51:25;;;;;;;1.20;0.90;;;2.90;49.60;;;;;;4997506;28;20565;-77
2023/03/11 10:53:54;;;;;;;2.22;0.93;;;2.90;51.00;;;;;;5000284;28;20405;-79
2023/03/11 10:56:31;;;;;;;0.90;0.90;;;3.00;48.40;;;;;;5004337;28;20209;-81
2023/03/11 10:58:58;;;;;;;1.30;1.08;;;3.00;48.10;;;;;;5002313;28;20191;-79
2023/03/11 11:01:27;;;;;;;1.98;0.88;;;3.00;48.70;;;;;;5002052;28;20199;-79
2023/03/11 11:03:56;;;;;;;0.95;0.95;;;3.10;47.80;;;;;;5003820;28;20223;-78
2023/03/11 11:06:27;;;;;;;1.00;1.00;;;3.10;47.10;;;;;;5000126;28;20210;-79
2023/03/11 11:09:18;;;;;;;1.10;1.10;;;3.20;47.40;;;;;;4999470;28;20187;-78
2023/03/11 11:12:02;;;;;;;1.13;1.13;;;3.30;48.40;;;;;;4999245;28;20199;-78
2023/03/11 11:14:45;;;;;;;1.77;0.80;;;3.30;47.70;;;;;;5001190;28;20222;-78
2023/03/11 11:17:23;;;;;;;0.80;0.80;;;3.40;46.80;;;;;;4998813;28;20242;-78
2023/03/11 11:19:50;;;;;;;1.58;0.80;;;3.40;44.90;;;;;;4999384;28;20532;-79
2023/03/11 11:22:21;;;;;;;1.55;0.95;;;3.40;45.00;;;;;;4999245;28;20710;-79
2023/03/11 11:24:50;;;;;;;2.47;1.05;;;3.40;45.30;;;;;;4998252;28;20187;-78
2023/03/11 11:27:20;;;;;;;0.70;0.70;;;3.40;46.30;;;;;;4999323;28;20209;-78
2023/03/11 11:30:02;;;;;;;1.58;1.20;;;3.50;45.40;;;;;;5000058;28;20202;-79
2023/03/11 11:32:28;;;;;;;2.60;1.30;;;3.50;44.30;;;;;;5000381;28;20558;-79
2023/03/11 11:34:59;;;;;;;1.48;0.90;;;3.60;44.70;;;;;;5000121;28;20203;-78
2023/03/11 11:37:30;;;;;;;1.20;1.17;;;3.50;44.60;;;;;;4998731;28;20225;-78
2023/03/11 11:40:00;;;;;;;0.90;0.90;;;3.60;44.60;;;;;;5000330;28;20229;-78
2023/03/11 11:42:30;;;;;;;1.58;0.90;;;3.70;45.30;;;;;;4998150;28;20225;-78
2023/03/11 11:45:03;;;;;;;1.13;0.85;;;3.80;45.00;;;;;;4998537;28;20222;-77
2023/03/11 11:47:34;;;;;;;0.95;0.90;;;3.80;44.80;;;;;;4998065;28;20594;-77
2023/03/11 11:50:04;;;;;;;0.93;0.93;;;3.80;44.70;;;;;;4998249;28;20187;-78
2023/03/11 11:52:34;;;;;;;1.85;0.70;;;3.70;44.30;;;;;;4997229;28;20357;-77
2023/03/11 11:55:04;;;;;;;0.90;0.90;;;3.70;44.10;;;;;;4998361;28;20218;-77
2023/03/11 11:57:32;;;;;;;0.98;0.90;;;3.70;44.70;;;;;;4997012;28;20224;-77
2023/03/11 11:59:59;;;;;;;1.33;1.13;;;3.80;45.60;;;;;;4998730;28;20207;-79
2023/03/11 12:02:46;;;;;;;0.82;0.80;;;3.90;45.30;;;;;;5000830;28;20226;-79
2023/03/11 12:05:19;;;;;;;1.40;0.95;;;4.00;45.30;;;;;;5003788;28;20197;-79
2023/03/11 12:07:59;;;;;;;1.10;1.05;;;4.10;44.40;;;;;;5000818;28;20189;-79
2023/03/11 12:10:31;;;;;;;0.95;0.90;;;4.10;44.00;;;;;;5005334;28;20191;-79
2023/03/11 12:13:29;;;;;;;0.70;0.70;;;4.10;44.30;;;;;;5000219;28;20270;-78
2023/03/11 12:16:01;;;;;;;0.80;0.80;;;4.10;42.50;;;;;;4998159;28;20213;-78
2023/03/11 12:18:36;;;;;;;1.60;0.90;;;4.20;42.10;;;;;;4998842;28;20187;-78
2023/03/11 12:21:14;;;;;;;1.42;0.70;;;4.10;41.20;;;;;;4999087;28;20649;-78
2023/03/11 12:23:55;;;;;;;1.75;0.90;;;4.10;41.40;;;;;;4998722;28;20230;-77
2023/03/11 12:26:25;;;;;;;1.00;1.00;;;4.10;40.50;;;;;;5011751;23;20231;-77
2023/03/11 12:28:57;;;;;;;0.85;0.77;;;4.10;40.90;;;;;;4976517;28;20701;-76
2023/03/11 12:31:25;;;;;;;0.60;0.60;;;4.10;42.00;;;;;;4976415;28;20192;-76
2023/03/11 12:33:57;;;;;;;0.70;0.70;;;4.20;42.50;;;;;;4976427;28;20659;-77
2023/03/11 12:36:29;;;;;;;0.75;0.75;;;4.20;42.30;;;;;;4975419;28;20224;-77
2023/03/11 12:38:56;;;;;;;0.60;0.60;;;4.20;41.00;;;;;;4976969;28;20187;-77
2023/03/11 12:41:29;;;;;;;0.70;0.70;;;4.10;40.90;;;;;;4975973;28;20207;-77
2023/03/11 12:44:20;;;;;;;0.60;0.60;;;4.10;40.70;;;;;;4976872;28;20207;-77
2023/03/11 12:47:01;;;;;;;1.63;0.80;;;4.00;41.10;;;;;;4976981;28;20262;-77
2023/03/11 12:49:30;;;;;;;4.10;1.10;;;4.00;40.40;;;;;;4976161;28;20194;-77
2023/03/11 12:52:05;;;;;;;1.02;0.98;;;4.00;41.10;;;;;;4976092;28;20242;-77
2023/03/11 12:54:34;;;;;;;1.05;0.82;;;4.00;41.30;;;;;;4976408;28;20207;-77
2023/03/11 12:57:02;;;;;;;1.08;0.98;;;4.10;40.80;;;;;;4977772;28;20238;-77
2023/03/11 13:00:06;;;;;;;1.80;0.80;;;4.20;41.10;;;;;;4975786;28;20278;-77
2023/03/11 13:03:15;;;;;;;0.90;0.80;;;4.20;39.70;;;;;;4976154;28;20196;-77
2023/03/11 13:05:54;;;;;;;0.88;0.88;;;4.30;39.50;;;;;;4976201;28;20191;-77
2023/03/11 13:08:22;;;;;;;0.93;0.93;;;4.30;39.20;;;;;;4976236;28;20228;-77
2023/03/11 13:10:50;;;;;;;0.80;0.80;;;4.40;38.90;;;;;;4976534;28;20664;-77
2023/03/11 13:13:39;;;;;;;0.98;0.93;;;4.30;38.80;;;;;;4976188;28;20199;-77
2023/03/11 13:16:40;;;;;;;0.77;0.77;;;4.30;38.90;;;;;;4976372;28;20223;-78
2023/03/11 13:19:36;;;;;;;0.90;0.90;;;4.40;39.70;;;;;;4970713;28;20213;-77
2023/03/11 13:22:05;;;;;;;0.60;0.60;;;4.50;40.40;;;;;;4975892;28;20746;-76
2023/03/11 13:24:51;;;;;;;0.85;0.85;;;4.60;40.30;;;;;;4976695;28;20230;-77
2023/03/11 13:27:38;;;;;;;1.10;0.90;;;4.60;40.20;;;;;;4976627;28;20231;-77
2023/03/11 13:30:14;;;;;;;1.15;1.00;;;4.60;40.30;;;;;;4977384;28;20192;-79
2023/03/11 13:33:00;;;;;;;2.22;0.80;;;4.70;40.40;;;;;;4976903;28;20186;-77
2023/03/11 13:35:53;;;;;;;0.80;0.80;;;4.70;40.20;;;;;;4975670;28;20191;-76
2023/03/11 13:38:52;;;;;;;1.13;0.88;;;4.70;40.30;;;;;;4975895;28;20194;-76
2023/03/11 13:41:24;;;;;;;1.02;0.93;;;4.70;40.30;;;;;;4946104;28;20666;-78
2023/03/11 13:43:52;;;;;;;2.38;1.10;;;4.70;41.50;;;;;;4977272;28;20214;-78
2023/03/11 13:46:28;;;;;;;1.52;0.70;;;4.70;41.10;;;;;;4977233;28;20227;-78
2023/03/11 13:49:02;;;;;;;1.17;0.95;;;4.80;41.10;;;;;;4977293;28;20195;-78
2023/03/11 13:51:36;;;;;;;1.27;0.90;;;4.70;40.60;;;;;;4977458;28;20195;-78
2023/03/11 13:54:07;;;;;;;1.40;1.20;;;4.70;41.20;;;;;;4977270;28;20195;-78
2023/03/11 13:56:42;;;;;;;1.13;1.02;;;4.70;42.10;;;;;;4976430;28;20602;-78
2023/03/11 13:59:16;;;;;;;1.08;1.08;;;4.70;42.30;;;;;;4976360;28;20207;-78
2023/03/11 14:01:49;;;;;;;0.80;0.80;;;4.70;42.50;;;;;;4976061;28;20207;-78
2023/03/11 14:04:23;;;;;;;0.70;0.70;;;4.70;44.30;;;;;;4977736;28;20218;-79
2023/03/11 14:06:51;;;;;;;1.05;0.60;;;4.80;45.50;;;;;;4977832;28;20601;-79
2023/03/11 14:09:20;;;;;;;0.88;0.88;;;4.90;45.60;;;;;;4979840;28;20206;-79
2023/03/11 14:11:48;;;;;;;0.85;0.85;;;5.10;46.60;;;;;;4980512;28;20218;-79
2023/03/11 14:14:39;;;;;;;1.27;1.08;;;5.20;45.80;;;;;;4979734;28;20199;-79
2023/03/11 14:17:12;;;;;;;1.20;1.10;;;5.30;45.00;;;;;;4982099;28;20230;-78
2023/03/11 14:19:40;;;;;;;1.00;1.00;;;5.40;45.10;;;;;;4981328;28;20567;-78
2023/03/11 14:22:08;;;;;;;1.40;0.93;;;5.30;45.70;;;;;;4977123;28;20214;-77
2023/03/11 14:24:36;;;;;;;0.98;0.98;;;5.30;45.90;;;;;;4978928;28;20243;-77
2023/03/11 14:27:08;;;;;;;0.82;0.82;;;5.40;47.20;;;;;;4978032;28;20267;-77
2023/03/11 14:29:37;;;;;;;0.93;0.93;;;5.60;48.00;;;;;;4977836;28;20654;-77
2023/03/11 14:32:16;;;;;;;0.93;0.93;;;5.70;48.20;;;;;;4976210;28;20203;-78
2023/03/11 14:34:45;;;;;;;2.70;1.73;;;5.80;50.70;;;;;;4975859;28;20191;-78
2023/03/11 14:37:25;;;;;;;1.27;1.17;;;5.70;50.40;;;;;;4976523;28;20740;-78
2023/03/11 14:39:52;;;;;;;1.10;1.10;;;5.60;49.40;;;;;;4980067;28;20203;-78
2023/03/11 14:42:25;;;;;;;1.38;1.17;;;5.50;50.50;;;;;;4976974;28;20211;-78
2023/03/11 14:44:56;;;;;;;3.03;1.35;;;5.50;52.10;;;;;;4981023;28;20239;-78
2023/03/11 14:47:32;;;;;;;1.55;1.05;;;5.40;50.30;;;;;;4984508;28;20259;-79
2023/03/11 14:50:00;;;;;;;1.85;0.90;;;5.40;49.70;;;;;;4977543;28;20195;-78
2023/03/11 14:52:36;;;;;;;0.70;0.70;;;5.40;49.80;;;;;;4976911;28;20203;-78
2023/03/11 14:55:11;;;;;;;0.90;0.85;;;5.40;50.60;;;;;;4975871;28;20190;-76
2023/03/11 14:57:41;;;;;;;0.73;0.73;;;5.40;49.80;;;;;;4977058;28;20234;-76
2023/03/11 15:00:15;;;;;;;1.08;1.08;;;5.40;50.30;;;;;;4979411;28;20636;-77
2023/03/11 15:02:55;;;;;;;0.73;0.73;;;5.50;49.80;;;;;;4983529;28;20187;-78
2023/03/11 15:05:32;;;;;;;0.65;0.65;;;5.60;49.90;;;;;;4983001;28;20208;-78
2023/03/11 15:08:02;;;;;;;0.80;0.80;;;5.70;49.80;;;;;;4983071;28;20242;-77
2023/03/11 15:10:29;;;;;;;0.68;0.68;;;5.80;50.40;;;;;;4983524;28;20207;-78
2023/03/11 15:13:06;;;;;;;0.88;0.88;;;6.00;50.10;;;;;;4984070;28;20214;-77
2023/03/11 15:15:33;;;;;;;1.02;0.90;;;6.20;49.20;;;;;;4983347;28;20187;-78
2023/03/11 15:18:01;;;;;;;0.95;0.95;;;6.30;50.20;;;;;;4985783;28;20203;-78
2023/03/11 15:20:31;;;;;;;0.90;0.90;;;6.40;50.20;;;;;;4980833;28;20207;-78
2023/03/11 15:23:03;;;;;;;0.90;0.90;;;6.50;50.00;;;;;;4979007;28;20207;-77
2023/03/11 15:25:33;;;;;;;1.25;1.00;;;6.60;50.80;;;;;;4978384;28;20235;-78
2023/03/11 15:28:00;;;;;;;0.90;0.90;;;6.70;49.60;;;;;;4980707;28;20701;-79
2023/03/11 15:30:29;;;;;;;0.95;0.95;;;6.70;50.10;;;;;;4980880;28;20218;-76
2023/03/11 15:32:57;;;;;;;0.90;0.90;;;6.70;52.20;;;;;;4981803;28;20214;-77
2023/03/11 15:35:25;;;;;;;1.00;1.00;;;6.70;52.70;;;;;;4979490;28;20200;-77
2023/03/11 15:38:13;;;;;;;0.90;0.90;;;6.70;52.00;;;;;;4985821;28;20223;-78
2023/03/11 15:40:39;;;;;;;0.98;0.98;;;6.60;51.30;;;;;;4986265;28;20183;-78
2023/03/11 15:43:26;;;;;;;0.70;0.70;;;6.50;52.60;;;;;;4991537;28;20199;-78
2023/03/11 15:45:54;;;;;;;2.30;1.55;;;6.50;53.90;;;;;;4983813;28;20227;-79
2023/03/11 15:48:22;;;;;;;1.70;1.10;;;6.40;54.30;;;;;;4983424;28;20200;-80
2023/03/11 15:50:50;;;;;;;1.67;1.30;;;6.30;55.70;;;;;;4980565;28;20568;-79
2023/03/11 15:53:19;;;;;;;1.33;1.23;;;6.10;57.20;;;;;;4982125;28;20206;-80
2023/03/11 15:55:46;;;;;;;1.20;1.13;;;5.90;60.20;;;;;;4986386;28;20195;-79
2023/03/11 15:58:16;;;;;;;0.90;0.90;;;5.90;63.80;;;;;;4981330;28;20191;-78
2023/03/11 16:00:47;;;;;;;1.35;1.13;;;5.80;66.70;;;;;;4980044;28;20286;-79
2023/03/11 16:03:13;;;;;;;1.17;1.17;;;5.80;69.60;;;;;;4981720;28;20200;-81
2023/03/11 16:05:40;;;;;;;1.15;1.15;;;5.70;73.60;;;;;;4981494;28;20651;-81
2023/03/11 16:08:07;;;;;;;1.02;1.02;;;5.60;78.90;;;;;;4981547;28;20203;-80
2023/03/11 16:10:35;;;;;;;1.75;1.30;;;5.50;84.10;;;;;;4980075;28;20581;-79
2023/03/11 16:13:02;;;;;;;1.10;1.10;;;5.50;89.60;;;;;;4980496;28;20211;-80
2023/03/11 16:15:31;;;;;;;1.02;1.02;;;5.40;91.80;;;;;;4980506;28;20199;-78
2023/03/11 16:18:00;;;;;;;1.05;1.05;;;5.30;94.30;;;;;;4982358;28;20211;-79
2023/03/11 16:20:28;;;;;;;1.63;1.52;;;5.20;97.60;;;;;;4982529;28;20207;-78
2023/03/11 16:22:58;;;;;;;1.10;1.10;;;5.20;99.70;;;;;;4981164;28;20203;-78
2023/03/11 16:25:27;;;;;;;0.90;0.90;;;5.10;99.90;;;;;;4981173;28;20223;-78
2023/03/11 16:27:57;;;;;;;1.10;1.10;;;5.10;99.90;;;;;;4981476;28;20231;-80
2023/03/11 16:30:25;;;;;;;1.05;1.05;;;5.00;99.90;;;;;;4981746;28;20663;-80
2023/03/11 16:32:52;;;;;;;1.23;1.10;;;5.00;99.90;;;;;;4980981;28;20234;-80
2023/03/11 16:35:19;;;;;;;0.98;0.98;;;5.00;99.90;;;;;;4980543;28;20290;-80
2023/03/11 16:37:46;;;;;;;1.20;1.20;;;4.90;99.90;;;;;;4980169;28;20227;-80
2023/03/11 16:40:15;;;;;;;1.30;1.30;;;4.90;99.90;;;;;;4979614;28;20208;-80
2023/03/11 16:42:42;;;;;;;1.25;1.20;;;4.80;99.90;;;;;;4980085;28;20203;-79
2023/03/11 16:45:11;;;;;;;1.40;1.40;;;4.80;99.90;;;;;;4978688;28;20258;-78
2023/03/11 16:47:38;;;;;;;1.10;1.10;;;4.70;99.90;;;;;;4978730;28;20223;-78
2023/03/11 16:50:06;;;;;;;1.00;1.00;;;4.70;99.90;;;;;;4977234;28;20203;-79
2023/03/11 16:52:33;;;;;;;1.00;1.00;;;4.70;99.90;;;;;;4978192;28;20702;-79
2023/03/11 16:55:00;;;;;;;1.00;1.00;;;4.60;99.90;;;;;;4980366;28;20207;-81
2023/03/11 16:57:26;;;;;;;1.00;1.00;;;4.60;99.90;;;;;;4980693;28;20223;-79
2023/03/11 16:59:53;;;;;;;1.00;1.00;;;4.60;99.90;;;;;;4979485;28;20207;-80
2023/03/11 17:02:21;;;;;;;1.00;1.00;;;4.50;99.90;;;;;;4979888;28;20208;-83
2023/03/11 17:04:48;;;;;;;0.77;0.77;;;4.40;99.90;;;;;;4980212;28;20552;-78
2023/03/11 17:07:15;;;;;;;0.90;0.90;;;4.40;99.90;;;;;;4978757;28;20231;-79
2023/03/11 17:09:41;;;;;;;1.27;1.27;;;4.40;99.90;;;;;;4978536;28;20198;-78
2023/03/11 17:12:12;;;;;;;1.45;1.30;;;4.30;99.90;;;;;;4978967;28;20207;-79
2023/03/11 17:14:38;;;;;;;1.17;1.17;;;4.30;99.90;;;;;;4986721;28;20187;-79
2023/03/11 17:17:06;;;;;;;1.35;1.30;;;4.20;99.90;;;;;;4989140;28;20231;-81
2023/03/11 17:19:34;;;;;;;1.35;1.27;;;4.20;99.90;;;;;;4987535;28;20203;-78
2023/03/11 17:22:01;;;;;;;1.10;1.10;;;4.10;99.90;;;;;;4986477;28;20191;-79
2023/03/11 17:24:28;;;;;;;0.95;0.95;;;4.10;99.90;;;;;;4988021;28;20231;-79
2023/03/11 17:26:55;;;;;;;1.27;1.17;;;4.00;99.90;;;;;;4985479;28;20235;-78
2023/03/11 17:29:21;;;;;;;1.10;1.10;;;4.00;99.10;;;;;;4985451;28;20674;-78
2023/03/11 17:31:48;;;;;;;1.23;1.13;;;3.90;90.50;;;;;;4986165;28;20195;-83
2023/03/11 17:34:15;;;;;;;1.35;1.25;;;3.90;85.80;;;;;;4979898;28;20211;-80
2023/03/11 17:36:43;;;;;;;1.55;1.45;;;3.90;80.00;;;;;;4979722;28;20718;-80
2023/03/11 17:39:10;;;;;;;2.25;1.45;;;3.80;76.70;;;;;;4977989;28;20187;-79
2023/03/11 17:41:37;;;;;;;1.02;1.02;;;3.80;73.90;;;;;;4978579;28;20211;-79
2023/03/11 17:44:04;;;;;;;1.40;1.30;;;3.70;72.00;;;;;;4979334;28;20207;-79
2023/03/11 17:46:31;;;;;;;2.22;1.63;;;3.70;72.30;;;;;;4978235;28;20238;-79
2023/03/11 17:48:57;;;;;;;1.38;1.30;;;3.70;70.60;;;;;;4977718;28;20663;-78
2023/03/11 17:51:25;;;;;;;2.03;1.60;;;3.70;71.20;;;;;;4976471;28;20200;-78
2023/03/11 17:53:55;;;;;;;2.10;1.38;;;3.60;70.30;;;;;;4978094;28;20210;-79
2023/03/11 17:56:22;;;;;;;3.20;1.80;;;3.60;71.20;;;;;;4975835;28;20729;-78
2023/03/11 17:58:50;;;;;;;1.98;1.75;;;3.50;70.60;;;;;;4976236;28;20636;-78
2023/03/11 18:01:18;;;;;;;3.10;1.70;;;3.50;71.70;;;;;;4976305;28;20291;-76
2023/03/11 18:03:45;;;;;;;1.60;1.50;;;3.50;71.10;;;;;;4975649;28;20214;-77
2023/03/11 18:06:13;;;;;;;1.48;1.38;;;3.50;72.30;;;;;;4975108;28;20231;-77
2023/03/11 18:08:40;;;;;;;1.77;1.65;;;3.50;73.40;;;;;;4974926;28;20686;-77
2023/03/11 18:11:09;;;;;;;3.58;1.42;;;3.50;74.00;;;;;;4974683;28;20666;-78
2023/03/11 18:13:38;;;;;;;2.97;1.95;;;3.40;72.40;;;;;;4977602;28;20259;-78
2023/03/11 18:16:07;;;;;;;3.83;2.30;;;3.40;72.60;;;;;;4976595;28;20761;-77
2023/03/11 18:18:35;;;;;;;1.77;1.67;;;3.40;72.10;;;;;;4975988;28;20195;-74
2023/03/11 18:21:02;;;;;;;1.92;1.70;;;3.40;85.60;;;;;;4976078;28;20258;-77
2023/03/11 18:23:31;;;;;;;2.92;1.83;;;3.50;82.10;;;;;;4979363;28;20203;-78
2023/03/11 18:25:58;;;;;;;2.38;1.55;;;3.50;74.90;;;;;;4976409;28;20600;-77
2023/03/11 18:28:27;;;;;;;2.00;1.38;;;3.50;72.70;;;;;;4976569;28;20214;-80
2023/03/11 18:30:54;;;;;;;1.23;1.13;;;3.40;71.50;;;;;;4978289;28;20234;-77
2023/03/11 18:33:21;;;;;;;5.88;1.92;;;3.30;72.10;;;;;;4980688;28;20210;-78
2023/03/11 18:35:47;;;;;;;1.60;1.50;;;3.30;71.50;;;;;;4982620;28;20203;-79
2023/03/11 18:38:14;;;;;;;1.25;1.17;;;3.20;71.10;;;;;;4981884;28;20226;-79
2023/03/11 18:40:41;;;;;;;1.65;1.50;;;3.20;74.10;;;;;;4980575;28;20203;-78
2023/03/11 18:43:08;;;;;;;2.20;1.30;;;3.20;77.20;;;;;;4981698;28;20207;-79
2023/03/11 18:45:39;;;;;;;1.35;1.05;;;3.20;78.40;;;;;;4981654;28;20224;-79
2023/03/11 18:48:06;;;;;;;1.48;1.45;;;3.10;80.10;;;;;;4982022;28;20199;-79
2023/03/11 18:50:32;;;;;;;1.00;1.00;;;3.10;84.10;;;;;;4981082;28;20210;-79
2023/03/11 18:53:00;;;;;;;1.90;1.33;;;3.10;89.50;;;;;;4981493;28;20570;-79
2023/03/11 18:55:27;;;;;;;1.10;1.02;;;3.00;91.50;;;;;;4980169;28;20199;-79
2023/03/11 18:57:54;;;;;;;1.45;1.33;;;3.00;93.00;;;;;;4980166;28;20258;-79
2023/03/11 19:00:22;;;;;;;2.08;1.13;;;3.00;93.80;;;;;;4980025;28;20199;-76
2023/03/11 19:02:52;;;;;;;1.70;1.60;;;2.90;94.80;;;;;;4982995;28;20235;-79
2023/03/11 19:05:19;;;;;;;0.93;0.93;;;2.90;96.40;;;;;;4981082;28;20219;-79
2023/03/11 19:07:46;;;;;;;1.58;1.30;;;2.80;97.20;;;;;;4980633;28;20237;-79
2023/03/11 19:10:16;;;;;;;1.85;1.55;;;2.80;98.20;;;;;;4981905;28;20309;-79
2023/03/11 19:12:43;;;;;;;1.40;1.30;;;2.80;98.20;;;;;;4980612;28;20288;-79
2023/03/11 19:15:11;;;;;;;1.35;1.35;;;2.70;98.00;;;;;;4980435;28;20238;-79
2023/03/11 19:17:38;;;;;;;1.88;1.77;;;2.70;98.80;;;;;;4980643;28;20610;-78
2023/03/11 19:20:08;;;;;;;2.03;1.92;;;2.60;99.90;;;;;;4978544;28;20563;-75
2023/03/11 19:22:35;;;;;;;1.60;1.50;;;2.50;99.90;;;;;;4978173;28;20647;-78